sensor_id;sensor_type;location;lat;lon;timestamp;pressure;altitude;pressure_sealevel;temperature;humidity
21240;BME280;10778;48.962;9.018;2023-02-02T00:01:57;99690.22;;;4.52;91.80
21240;BME280;10778;48.962;9.018;2023-02-02T00:04:29;99677.19;;;4.52;92.72
21240;BME280;10778;48.962;9.018;2023-02-02T00:06:55;99683.34;;;4.51;92.21
21240;BME280;10778;48.962;9.018;2023-02-02T00:09:29;99679.75;;;4.54;91.97
21240;BME280;10778;48.962;9.018;2023-02-02T00:11:56;99673.66;;;4.53;91.48
21240;BME280;10778;48.962;9.018;2023-02-02T00:14:23;99681.16;;;4.60;91.11
21240;BME280;10778;48.962;9.018;2023-02-02T00:16:53;99681.34;;;4.57;91.29
21240;BME280;10778;48.962;9.018;2023-02-02T00:19:25;99679.81;;;4.52;92.39
21240;BME280;10778;48.962;9.018;2023-02-02T00:21:52;99674.59;;;4.52;93.47
21240;BME280;10778;48.962;9.018;2023-02-02T00:24:19;99688.81;;;4.47;93.52
21240;BME280;10778;48.962;9.018;2023-02-02T00:26:53;99695.38;;;4.54;92.82
21240;BME280;10778;48.962;9.018;2023-02-02T00:29:21;99693.75;;;4.51;92.80
21240;BME280;10778;48.962;9.018;2023-02-02T00:31:48;99682.34;;;4.54;92.40
21240;BME280;10778;48.962;9.018;2023-02-02T00:34:15;99694.44;;;4.55;92.40
21240;BME280;10778;48.962;9.018;2023-02-02T00:36:42;99686.44;;;4.58;92.30
21240;BME280;10778;48.962;9.018;2023-02-02T00:39:10;99684.59;;;4.60;91.89
21240;BME280;10778;48.962;9.018;2023-02-02T00:41:37;99666.34;;;4.60;92.49
21240;BME280;10778;48.962;9.018;2023-02-02T00:44:03;99665.78;;;4.55;92.76
21240;BME280;10778;48.962;9.018;2023-02-02T00:46:48;99667.38;;;4.58;92.56
21240;BME280;10778;48.962;9.018;2023-02-02T00:49:14;99666.63;;;4.55;93.36
21240;BME280;10778;48.962;9.018;2023-02-02T00:51:40;99658.03;;;4.53;93.78
21240;BME280;10778;48.962;9.018;2023-02-02T00:54:06;99665.28;;;4.48;95.88
21240;BME280;10778;48.962;9.018;2023-02-02T00:56:32;99656.03;;;4.43;95.77
21240;BME280;10778;48.962;9.018;2023-02-02T00:58:58;99667.31;;;4.43;95.55
21240;BME280;10778;48.962;9.018;2023-02-02T01:01:24;99659.06;;;4.51;95.11
21240;BME280;10778;48.962;9.018;2023-02-02T01:03:50;99647.13;;;4.47;94.92
21240;BME280;10778;48.962;9.018;2023-02-02T01:06:17;99655.78;;;4.47;95.12
21240;BME280;10778;48.962;9.018;2023-02-02T01:08:43;99661.91;;;4.46;95.66
21240;BME280;10778;48.962;9.018;2023-02-02T01:11:09;99667.31;;;4.43;97.04
21240;BME280;10778;48.962;9.018;2023-02-02T01:13:35;99671.31;;;4.33;98.86
21240;BME280;10778;48.962;9.018;2023-02-02T01:16:02;99667.97;;;4.31;99.61
21240;BME280;10778;48.962;9.018;2023-02-02T01:18:30;99668.13;;;4.27;100.00
21240;BME280;10778;48.962;9.018;2023-02-02T01:21:02;99664.59;;;4.29;99.95
21240;BME280;10778;48.962;9.018;2023-02-02T01:23:29;99664.59;;;4.29;99.64
21240;BME280;10778;48.962;9.018;2023-02-02T01:25:57;99673.00;;;4.34;99.06
21240;BME280;10778;48.962;9.018;2023-02-02T01:28:24;99665.94;;;4.36;99.34
21240;BME280;10778;48.962;9.018;2023-02-02T01:30:50;99669.47;;;4.35;98.77
21240;BME280;10778;48.962;9.018;2023-02-02T01:33:17;99672.25;;;4.32;99.04
21240;BME280;10778;48.962;9.018;2023-02-02T01:35:45;99679.91;;;4.35;98.50
21240;BME280;10778;48.962;9.018;2023-02-02T01:38:12;99674.63;;;4.36;98.53
21240;BME280;10778;48.962;9.018;2023-02-02T01:40:50;99675.19;;;4.41;98.30
21240;BME280;10778;48.962;9.018;2023-02-02T01:43:28;99677.91;;;4.40;98.00
21240;BME280;10778;48.962;9.018;2023-02-02T01:45:56;99666.81;;;4.36;98.36
21240;BME280;10778;48.962;9.018;2023-02-02T01:48:30;99677.97;;;4.38;98.24
21240;BME280;10778;48.962;9.018;2023-02-02T01:51:01;99654.63;;;4.37;97.82
21240;BME280;10778;48.962;9.018;2023-02-02T01:53:28;99665.81;;;4.39;97.56
21240;BME280;10778;48.962;9.018;2023-02-02T01:55:55;99657.88;;;4.40;97.94
21240;BME280;10778;48.962;9.018;2023-02-02T01:58:27;99663.84;;;4.43;97.41
21240;BME280;10778;48.962;9.018;2023-02-02T02:00:55;99659.66;;;4.40;97.22
21240;BME280;10778;48.962;9.018;2023-02-02T02:03:23;99657.13;;;4.38;97.98
21240;BME280;10778;48.962;9.018;2023-02-02T02:05:55;99655.69;;;4.33;98.91
21240;BME280;10778;48.962;9.018;2023-02-02T02:08:27;99658.06;;;4.37;99.08
21240;BME280;10778;48.962;9.018;2023-02-02T02:10:54;99665.94;;;4.36;99.33
21240;BME280;10778;48.962;9.018;2023-02-02T02:13:23;99677.16;;;4.38;99.67
21240;BME280;10778;48.962;9.018;2023-02-02T02:19:21;99685.88;;;4.37;100.00
21240;BME280;10778;48.962;9.018;2023-02-02T02:25:05;99671.50;;;4.30;100.00
21240;BME280;10778;48.962;9.018;2023-02-02T02:33:33;99679.50;;;4.26;100.00
21240;BME280;10778;48.962;9.018;2023-02-02T02:36:17;99686.13;;;4.32;100.00
21240;BME280;10778;48.962;9.018;2023-02-02T02:39:04;99681.84;;;4.31;100.00
21240;BME280;10778;48.962;9.018;2023-02-02T02:41:39;99686.13;;;4.32;100.00
21240;BME280;10778;48.962;9.018;2023-02-02T02:44:09;99681.91;;;4.30;100.00
21240;BME280;10778;48.962;9.018;2023-02-02T02:46:37;99695.69;;;4.32;100.00
21240;BME280;10778;48.962;9.018;2023-02-02T02:49:03;99691.66;;;4.26;100.00
21240;BME280;10778;48.962;9.018;2023-02-02T02:54:17;99692.28;;;4.31;100.00
21240;BME280;10778;48.962;9.018;2023-02-02T02:57:10;99699.97;;;4.33;100.00
21240;BME280;10778;48.962;9.018;2023-02-02T03:05:32;99700.31;;;4.26;100.00
21240;BME280;10778;48.962;9.018;2023-02-02T03:10:44;99701.16;;;4.27;100.00
21240;BME280;10778;48.962;9.018;2023-02-02T03:13:12;99706.28;;;4.29;100.00
21240;BME280;10778;48.962;9.018;2023-02-02T03:15:45;99711.44;;;4.30;100.00
21240;BME280;10778;48.962;9.018;2023-02-02T03:18:13;99701.06;;;4.29;100.00
21240;BME280;10778;48.962;9.018;2023-02-02T03:20:42;99694.03;;;4.31;100.00
21240;BME280;10778;48.962;9.018;2023-02-02T03:23:09;99698.91;;;4.37;100.00
21240;BME280;10778;48.962;9.018;2023-02-02T03:25:35;99697.13;;;4.37;100.00
21240;BME280;10778;48.962;9.018;2023-02-02T03:28:03;99703.50;;;4.32;100.00
21240;BME280;10778;48.962;9.018;2023-02-02T03:30:29;99698.31;;;4.32;100.00
21240;BME280;10778;48.962;9.018;2023-02-02T03:32:56;99693.25;;;4.29;100.00
21240;BME280;10778;48.962;9.018;2023-02-02T03:35:22;99696.97;;;4.24;100.00
21240;BME280;10778;48.962;9.018;2023-02-02T03:37:50;99702.00;;;4.27;100.00
21240;BME280;10778;48.962;9.018;2023-02-02T03:40:17;99689.72;;;4.30;100.00
21240;BME280;10778;48.962;9.018;2023-02-02T03:42:44;99710.75;;;4.26;100.00
21240;BME280;10778;48.962;9.018;2023-02-02T03:45:10;99712.94;;;4.34;100.00
21240;BME280;10778;48.962;9.018;2023-02-02T03:47:36;99724.13;;;4.36;100.00
21240;BME280;10778;48.962;9.018;2023-02-02T03:50:02;99712.09;;;4.34;100.00
21240;BME280;10778;48.962;9.018;2023-02-02T03:52:28;99717.28;;;4.34;100.00
21240;BME280;10778;48.962;9.018;2023-02-02T03:54:54;99722.38;;;4.37;100.00
21240;BME280;10778;48.962;9.018;2023-02-02T03:57:20;99717.97;;;4.37;100.00
21240;BME280;10778;48.962;9.018;2023-02-02T03:59:46;99718.97;;;4.35;100.00
21240;BME280;10778;48.962;9.018;2023-02-02T04:02:12;99728.31;;;4.39;100.00
21240;BME280;10778;48.962;9.018;2023-02-02T04:04:38;99734.28;;;4.41;100.00
21240;BME280;10778;48.962;9.018;2023-02-02T04:07:04;99721.03;;;4.46;100.00
21240;BME280;10778;48.962;9.018;2023-02-02T04:09:30;99723.53;;;4.47;100.00
21240;BME280;10778;48.962;9.018;2023-02-02T04:11:56;99731.44;;;4.46;100.00
21240;BME280;10778;48.962;9.018;2023-02-02T04:14:22;99733.88;;;4.49;100.00
21240;BME280;10778;48.962;9.018;2023-02-02T04:16:48;99730.25;;;4.51;100.00
21240;BME280;10778;48.962;9.018;2023-02-02T04:19:15;99721.44;;;4.54;100.00
21240;BME280;10778;48.962;9.018;2023-02-02T04:21:43;99737.41;;;4.48;100.00
21240;BME280;10778;48.962;9.018;2023-02-02T04:24:10;99735.56;;;4.50;100.00
21240;BME280;10778;48.962;9.018;2023-02-02T04:26:36;99726.88;;;4.49;100.00
21240;BME280;10778;48.962;9.018;2023-02-02T04:29:02;99731.00;;;4.53;100.00
21240;BME280;10778;48.962;9.018;2023-02-02T04:31:28;99729.94;;;4.58;100.00
21240;BME280;10778;48.962;9.018;2023-02-02T04:33:55;99730.00;;;4.56;100.00
21240;BME280;10778;48.962;9.018;2023-02-02T04:36:21;99735.13;;;4.58;100.00
21240;BME280;10778;48.962;9.018;2023-02-02T04:38:49;99741.34;;;4.55;100.00
21240;BME280;10778;48.962;9.018;2023-02-02T04:41:15;99746.50;;;4.57;100.00
21240;BME280;10778;48.962;9.018;2023-02-02T04:43:43;99755.56;;;4.65;99.24
21240;BME280;10778;48.962;9.018;2023-02-02T04:46:10;99751.53;;;4.60;100.00
21240;BME280;10778;48.962;9.018;2023-02-02T04:48:37;99755.81;;;4.61;100.00
21240;BME280;10778;48.962;9.018;2023-02-02T04:51:05;99753.28;;;4.59;100.00
21240;BME280;10778;48.962;9.018;2023-02-02T04:53:31;99751.34;;;4.63;99.98
21240;BME280;10778;48.962;9.018;2023-02-02T04:56:07;99740.25;;;4.59;99.53
21240;BME280;10778;48.962;9.018;2023-02-02T04:58:34;99749.00;;;4.58;99.59
21240;BME280;10778;48.962;9.018;2023-02-02T05:01:00;99746.06;;;4.64;99.53
21240;BME280;10778;48.962;9.018;2023-02-02T05:03:26;99750.44;;;4.64;98.72
21240;BME280;10778;48.962;9.018;2023-02-02T05:06:01;99756.50;;;4.64;99.12
21240;BME280;10778;48.962;9.018;2023-02-02T05:08:27;99758.34;;;4.62;99.54
21240;BME280;10778;48.962;9.018;2023-02-02T05:10:53;99770.03;;;4.71;99.01
21240;BME280;10778;48.962;9.018;2023-02-02T05:13:19;99782.47;;;4.66;98.93
21240;BME280;10778;48.962;9.018;2023-02-02T05:15:45;99789.34;;;4.67;98.82
21240;BME280;10778;48.962;9.018;2023-02-02T05:18:12;99791.72;;;4.72;98.51
21240;BME280;10778;48.962;9.018;2023-02-02T05:20:38;99783.22;;;4.68;99.01
21240;BME280;10778;48.962;9.018;2023-02-02T05:23:04;99789.28;;;4.68;98.56
21240;BME280;10778;48.962;9.018;2023-02-02T05:25:30;99784.91;;;4.69;99.43
21240;BME280;10778;48.962;9.018;2023-02-02T05:27:56;99791.97;;;4.67;99.02
21240;BME280;10778;48.962;9.018;2023-02-02T05:30:22;99786.56;;;4.70;98.75
21240;BME280;10778;48.962;9.018;2023-02-02T05:32:48;99787.50;;;4.69;98.73
21240;BME280;10778;48.962;9.018;2023-02-02T05:35:14;99794.31;;;4.72;99.25
21240;BME280;10778;48.962;9.018;2023-02-02T05:37:43;99795.19;;;4.72;98.71
21240;BME280;10778;48.962;9.018;2023-02-02T05:40:10;99793.31;;;4.74;98.89
21240;BME280;10778;48.962;9.018;2023-02-02T05:42:36;99805.50;;;4.74;98.32
21240;BME280;10778;48.962;9.018;2023-02-02T05:45:02;99805.50;;;4.74;98.70
21240;BME280;10778;48.962;9.018;2023-02-02T05:47:28;99806.03;;;4.80;99.02
21240;BME280;10778;48.962;9.018;2023-02-02T05:49:54;99787.94;;;4.77;98.85
21240;BME280;10778;48.962;9.018;2023-02-02T05:52:22;99788.13;;;4.74;99.38
21240;BME280;10778;48.962;9.018;2023-02-02T05:54:49;99790.56;;;4.77;99.49
21240;BME280;10778;48.962;9.018;2023-02-02T05:57:15;99782.63;;;4.79;98.35
21240;BME280;10778;48.962;9.018;2023-02-02T05:59:41;99783.47;;;4.79;97.85
21240;BME280;10778;48.962;9.018;2023-02-02T06:02:07;99797.19;;;4.83;98.33
21240;BME280;10778;48.962;9.018;2023-02-02T06:04:33;99793.66;;;4.84;97.88
21240;BME280;10778;48.962;9.018;2023-02-02T06:06:59;99787.84;;;4.79;97.79
21240;BME280;10778;48.962;9.018;2023-02-02T06:09:25;99796.59;;;4.78;98.88
21240;BME280;10778;48.962;9.018;2023-02-02T06:11:51;99788.63;;;4.81;98.79
21240;BME280;10778;48.962;9.018;2023-02-02T06:14:17;99787.41;;;4.87;97.90
21240;BME280;10778;48.962;9.018;2023-02-02T06:16:43;99778.28;;;4.79;98.63
21240;BME280;10778;48.962;9.018;2023-02-02T06:19:09;99806.38;;;4.74;98.88
21240;BME280;10778;48.962;9.018;2023-02-02T06:21:35;99806.38;;;4.74;98.95
21240;BME280;10778;48.962;9.018;2023-02-02T06:24:01;99803.59;;;4.77;98.74
21240;BME280;10778;48.962;9.018;2023-02-02T06:26:28;99796.69;;;4.76;98.43
21240;BME280;10778;48.962;9.018;2023-02-02T06:28:54;99799.31;;;4.76;98.49
21240;BME280;10778;48.962;9.018;2023-02-02T06:31:20;99798.53;;;4.74;98.65
21240;BME280;10778;48.962;9.018;2023-02-02T06:33:52;99807.13;;;4.76;98.71
21240;BME280;10778;48.962;9.018;2023-02-02T06:36:18;99806.03;;;4.80;98.06
21240;BME280;10778;48.962;9.018;2023-02-02T06:38:49;99801.97;;;4.75;98.29
21240;BME280;10778;48.962;9.018;2023-02-02T06:41:16;99815.75;;;4.77;98.35
21240;BME280;10778;48.962;9.018;2023-02-02T06:43:42;99822.59;;;4.79;98.59
21240;BME280;10778;48.962;9.018;2023-02-02T06:46:09;99826.94;;;4.79;98.59
21240;BME280;10778;48.962;9.018;2023-02-02T06:48:35;99815.69;;;4.78;98.88
21240;BME280;10778;48.962;9.018;2023-02-02T06:51:01;99822.00;;;4.74;98.96
21240;BME280;10778;48.962;9.018;2023-02-02T06:53:27;99813.91;;;4.79;99.67
21240;BME280;10778;48.962;9.018;2023-02-02T06:55:58;99808.22;;;4.72;99.76
21240;BME280;10778;48.962;9.018;2023-02-02T06:58:26;99807.28;;;4.73;99.54
21240;BME280;10778;48.962;9.018;2023-02-02T07:00:52;99806.38;;;4.74;99.55
21240;BME280;10778;48.962;9.018;2023-02-02T07:03:19;99815.88;;;4.75;99.64
21240;BME280;10778;48.962;9.018;2023-02-02T07:05:49;99818.22;;;4.80;99.30
21240;BME280;10778;48.962;9.018;2023-02-02T07:08:15;99817.38;;;4.79;99.18
21240;BME280;10778;48.962;9.018;2023-02-02T07:10:41;99816.63;;;4.77;99.58
21240;BME280;10778;48.962;9.018;2023-02-02T07:13:09;99826.13;;;4.78;98.99
21240;BME280;10778;48.962;9.018;2023-02-02T07:15:38;99829.25;;;4.85;98.94
21240;BME280;10778;48.962;9.018;2023-02-02T07:18:04;99825.13;;;4.81;99.13
21240;BME280;10778;48.962;9.018;2023-02-02T07:20:30;99823.28;;;4.83;99.46
21240;BME280;10778;48.962;9.018;2023-02-02T07:22:56;99814.41;;;4.86;99.72
21240;BME280;10778;48.962;9.018;2023-02-02T07:25:22;99825.19;;;4.79;99.29
21240;BME280;10778;48.962;9.018;2023-02-02T07:27:52;99821.72;;;4.79;99.16
21240;BME280;10778;48.962;9.018;2023-02-02T07:30:19;99823.34;;;4.81;99.16
21240;BME280;10778;48.962;9.018;2023-02-02T07:32:49;99835.44;;;4.82;98.99
21240;BME280;10778;48.962;9.018;2023-02-02T07:35:16;99827.47;;;4.86;98.99
21240;BME280;10778;48.962;9.018;2023-02-02T07:37:42;99827.47;;;4.86;99.18
21240;BME280;10778;48.962;9.018;2023-02-02T07:40:09;99821.31;;;4.87;98.62
21240;BME280;10778;48.962;9.018;2023-02-02T07:42:35;99823.94;;;4.87;98.34
21240;BME280;10778;48.962;9.018;2023-02-02T07:45:01;99825.47;;;4.91;98.69
21240;BME280;10778;48.962;9.018;2023-02-02T07:47:27;99847.41;;;4.87;98.82
21240;BME280;10778;48.962;9.018;2023-02-02T07:49:53;99836.66;;;4.93;98.81
21240;BME280;10778;48.962;9.018;2023-02-02T07:52:19;99823.69;;;5.07;98.44
21240;BME280;10778;48.962;9.018;2023-02-02T07:54:45;99827.56;;;5.00;98.24
21240;BME280;10778;48.962;9.018;2023-02-02T07:57:11;99820.16;;;5.08;97.80
21240;BME280;10778;48.962;9.018;2023-02-02T07:59:38;99817.56;;;5.08;97.05
21240;BME280;10778;48.962;9.018;2023-02-02T08:02:04;99821.84;;;5.09;96.64
21240;BME280;10778;48.962;9.018;2023-02-02T08:04:30;99823.69;;;5.07;96.41
21240;BME280;10778;48.962;9.018;2023-02-02T08:06:59;99840.09;;;5.09;96.89
21240;BME280;10778;48.962;9.018;2023-02-02T08:09:25;99835.81;;;5.08;96.23
21240;BME280;10778;48.962;9.018;2023-02-02T08:11:51;99854.31;;;5.20;96.53
21240;BME280;10778;48.962;9.018;2023-02-02T08:14:17;99860.44;;;5.19;96.40
21240;BME280;10778;48.962;9.018;2023-02-02T08:16:43;99878.72;;;5.19;96.89
21240;BME280;10778;48.962;9.018;2023-02-02T08:19:09;99879.22;;;5.25;96.04
21240;BME280;10778;48.962;9.018;2023-02-02T08:21:36;99882.00;;;5.22;96.45
21240;BME280;10778;48.962;9.018;2023-02-02T08:24:02;99893.53;;;5.18;96.33
21240;BME280;10778;48.962;9.018;2023-02-02T08:26:30;99898.81;;;5.17;95.82
21240;BME280;10778;48.962;9.018;2023-02-02T08:28:58;99893.78;;;5.13;96.63
21240;BME280;10778;48.962;9.018;2023-02-02T08:31:33;99896.97;;;5.03;96.54
21240;BME280;10778;48.962;9.018;2023-02-02T08:34:00;99908.09;;;5.06;97.58
21240;BME280;10778;48.962;9.018;2023-02-02T08:36:28;99911.53;;;5.07;97.18
21240;BME280;10778;48.962;9.018;2023-02-02T08:38:54;99908.84;;;5.08;96.87
21240;BME280;10778;48.962;9.018;2023-02-02T08:45:09;99910.59;;;5.08;97.06
21240;BME280;10778;48.962;9.018;2023-02-02T08:47:35;99920.97;;;5.09;97.25
21240;BME280;10778;48.962;9.018;2023-02-02T08:50:01;99907.00;;;5.10;96.37
21240;BME280;10778;48.962;9.018;2023-02-02T08:52:27;99912.97;;;5.12;96.75
21240;BME280;10778;48.962;9.018;2023-02-02T08:54:53;99920.09;;;5.09;97.13
21240;BME280;10778;48.962;9.018;2023-02-02T08:57:19;99911.53;;;5.07;97.63
21240;BME280;10778;48.962;9.018;2023-02-02T08:59:44;99924.22;;;5.13;97.27
21240;BME280;10778;48.962;9.018;2023-02-02T09:02:10;99927.84;;;5.10;97.47
21240;BME280;10778;48.962;9.018;2023-02-02T09:04:38;99918.41;;;5.08;97.63
21240;BME280;10778;48.962;9.018;2023-02-02T09:07:05;99922.94;;;5.04;97.81
21240;BME280;10778;48.962;9.018;2023-02-02T09:09:31;99920.28;;;5.06;98.31
21240;BME280;10778;48.962;9.018;2023-02-02T09:11:57;99916.91;;;5.04;98.82
21240;BME280;10778;48.962;9.018;2023-02-02T09:14:23;99940.03;;;5.10;98.58
21240;BME280;10778;48.962;9.018;2023-02-02T09:16:49;99929.59;;;5.10;98.20
21240;BME280;10778;48.962;9.018;2023-02-02T09:19:15;99908.16;;;5.05;98.84
21240;BME280;10778;48.962;9.018;2023-02-02T09:21:41;99919.28;;;5.08;99.14
21240;BME280;10778;48.962;9.018;2023-02-02T09:24:12;99927.84;;;5.10;99.36
21240;BME280;10778;48.962;9.018;2023-02-02T09:26:39;99923.97;;;5.02;99.01
21240;BME280;10778;48.962;9.018;2023-02-02T09:32:52;99928.34;;;5.01;99.58
21240;BME280;10778;48.962;9.018;2023-02-02T09:35:18;99933.38;;;5.04;99.88
21240;BME280;10778;48.962;9.018;2023-02-02T09:37:44;99929.53;;;5.11;100.00
21240;BME280;10778;48.962;9.018;2023-02-02T09:40:16;99936.44;;;5.12;99.89
21240;BME280;10778;48.962;9.018;2023-02-02T09:42:59;99931.81;;;5.18;99.69
21240;BME280;10778;48.962;9.018;2023-02-02T09:45:48;99933.41;;;5.20;99.66
21240;BME280;10778;48.962;9.018;2023-02-02T09:48:23;99938.28;;;5.26;99.64
21240;BME280;10778;48.962;9.018;2023-02-02T09:50:59;99948.16;;;5.21;99.46
21240;BME280;10778;48.962;9.018;2023-02-02T09:53:57;99948.97;;;5.22;99.57
21240;BME280;10778;48.962;9.018;2023-02-02T09:56:36;99955.53;;;5.13;99.50
21240;BME280;10778;48.962;9.018;2023-02-02T09:59:05;99959.84;;;5.14;99.59
21240;BME280;10778;48.962;9.018;2023-02-02T10:01:34;99962.34;;;5.16;99.82
21240;BME280;10778;48.962;9.018;2023-02-02T10:04:35;99965.81;;;5.16;98.79
21240;BME280;10778;48.962;9.018;2023-02-02T10:07:32;99951.75;;;5.19;98.83
21240;BME280;10778;48.962;9.018;2023-02-02T10:10:38;99964.72;;;5.20;99.15
21240;BME280;10778;48.962;9.018;2023-02-02T10:13:04;99965.25;;;5.27;98.59
21240;BME280;10778;48.962;9.018;2023-02-02T10:21:10;99965.47;;;5.22;98.03
21240;BME280;10778;48.962;9.018;2023-02-02T10:23:44;99974.41;;;5.18;98.99
21240;BME280;10778;48.962;9.018;2023-02-02T10:26:21;99960.66;;;5.15;100.00
21240;BME280;10778;48.962;9.018;2023-02-02T10:31:41;99966.06;;;5.11;100.00
21240;BME280;10778;48.962;9.018;2023-02-02T10:37:01;99967.75;;;5.12;100.00
21240;BME280;10778;48.962;9.018;2023-02-02T10:39:39;99969.59;;;5.10;100.00
21240;BME280;10778;48.962;9.018;2023-02-02T10:45:14;99982.66;;;5.26;100.00
21240;BME280;10778;48.962;9.018;2023-02-02T10:47:42;99978.19;;;5.29;100.00
21240;BME280;10778;48.962;9.018;2023-02-02T10:52:39;99988.47;;;5.32;100.00
21240;BME280;10778;48.962;9.018;2023-02-02T10:57:47;99976.44;;;5.29;99.31
21240;BME280;10778;48.962;9.018;2023-02-02T11:00:48;99973.31;;;5.38;99.80
21240;BME280;10778;48.962;9.018;2023-02-02T11:03:18;99972.31;;;5.41;99.33
21240;BME280;10778;48.962;9.018;2023-02-02T11:05:45;99967.59;;;5.48;98.49
21240;BME280;10778;48.962;9.018;2023-02-02T11:08:44;99969.03;;;5.53;96.92
21240;BME280;10778;48.962;9.018;2023-02-02T11:11:23;99966.09;;;5.60;96.71
21240;BME280;10778;48.962;9.018;2023-02-02T11:13:58;99966.75;;;5.63;95.33
21240;BME280;10778;48.962;9.018;2023-02-02T11:16:27;99958.00;;;5.64;96.00
21240;BME280;10778;48.962;9.018;2023-02-02T11:18:53;99965.91;;;5.63;95.54
21240;BME280;10778;48.962;9.018;2023-02-02T11:24:33;99969.81;;;5.55;97.51
21240;BME280;10778;48.962;9.018;2023-02-02T11:27:04;99962.72;;;5.58;98.44
21240;BME280;10778;48.962;9.018;2023-02-02T11:43:04;99967.44;;;5.35;100.00
21240;BME280;10778;48.962;9.018;2023-02-02T11:45:34;99967.22;;;5.22;100.00
21240;BME280;10778;48.962;9.018;2023-02-02T11:48:11;99971.69;;;5.20;100.00
21240;BME280;10778;48.962;9.018;2023-02-02T11:50:53;99978.59;;;5.21;100.00
21240;BME280;10778;48.962;9.018;2023-02-02T11:55:58;99974.16;;;5.23;100.00
21240;BME280;10778;48.962;9.018;2023-02-02T12:00:55;99971.63;;;5.21;100.00
21240;BME280;10778;48.962;9.018;2023-02-02T12:03:34;99969.72;;;5.25;100.00
21240;BME280;10778;48.962;9.018;2023-02-02T12:06:17;99970.88;;;5.19;100.00
21240;BME280;10778;48.962;9.018;2023-02-02T12:08:43;99970.94;;;5.18;100.00
21240;BME280;10778;48.962;9.018;2023-02-02T12:13:57;99960.66;;;5.15;100.00
21240;BME280;10778;48.962;9.018;2023-02-02T12:16:41;99969.75;;;5.07;100.00
21240;BME280;10778;48.962;9.018;2023-02-02T12:24:33;99957.03;;;5.01;100.00
21240;BME280;10778;48.962;9.018;2023-02-02T12:33:15;99969.91;;;5.04;100.00
21240;BME280;10778;48.962;9.018;2023-02-02T12:36:00;99970.75;;;5.05;100.00
21240;BME280;10778;48.962;9.018;2023-02-02T12:38:41;99969.91;;;5.04;100.00
21240;BME280;10778;48.962;9.018;2023-02-02T12:41:34;99967.97;;;5.08;100.00
21240;BME280;10778;48.962;9.018;2023-02-02T12:44:16;99966.75;;;5.15;100.00
21240;BME280;10778;48.962;9.018;2023-02-02T12:49:58;99966.13;;;5.10;100.00
21240;BME280;10778;48.962;9.018;2023-02-02T12:52:56;99940.50;;;5.18;100.00
21240;BME280;10778;48.962;9.018;2023-02-02T12:55:56;99952.50;;;5.21;100.00
21240;BME280;10778;48.962;9.018;2023-02-02T12:58:35;99958.50;;;5.23;100.00
21240;BME280;10778;48.962;9.018;2023-02-02T13:04:30;99953.94;;;5.26;100.00
21240;BME280;10778;48.962;9.018;2023-02-02T13:09:29;99960.59;;;5.32;100.00
21240;BME280;10778;48.962;9.018;2023-02-02T13:12:09;99961.53;;;5.31;100.00
21240;BME280;10778;48.962;9.018;2023-02-02T13:14:41;99960.53;;;5.34;100.00
21240;BME280;10778;48.962;9.018;2023-02-02T13:17:20;99955.22;;;5.35;99.77
21240;BME280;10778;48.962;9.018;2023-02-02T13:19:51;99952.13;;;5.45;98.24
21240;BME280;10778;48.962;9.018;2023-02-02T13:22:25;99953.97;;;5.43;99.38
21240;BME280;10778;48.962;9.018;2023-02-02T13:24:54;99957.09;;;5.49;99.92
21240;BME280;10778;48.962;9.018;2023-02-02T13:27:22;99962.16;;;5.52;99.25
21240;BME280;10778;48.962;9.018;2023-02-02T13:29:54;99967.19;;;5.55;97.84
21240;BME280;10778;48.962;9.018;2023-02-02T13:32:31;99957.50;;;5.58;98.08
21240;BME280;10778;48.962;9.018;2023-02-02T13:35:05;99975.19;;;5.52;98.32
21240;BME280;10778;48.962;9.018;2023-02-02T13:37:50;99968.00;;;5.56;98.33
21240;BME280;10778;48.962;9.018;2023-02-02T13:43:21;99981.84;;;5.58;97.44
21240;BME280;10778;48.962;9.018;2023-02-02T13:45:58;99978.13;;;5.62;97.39
21240;BME280;10778;48.962;9.018;2023-02-02T13:51:35;99989.16;;;5.67;96.23
21240;BME280;10778;48.962;9.018;2023-02-02T13:56:57;100007.44;;;5.67;95.94
21240;BME280;10778;48.962;9.018;2023-02-02T14:01:56;100004.34;;;5.77;95.05
21240;BME280;10778;48.962;9.018;2023-02-02T14:04:32;99988.75;;;5.75;93.92
21240;BME280;10778;48.962;9.018;2023-02-02T14:07:04;99992.09;;;5.77;93.60
21240;BME280;10778;48.962;9.018;2023-02-02T14:09:34;100000.88;;;5.76;93.44
21240;BME280;10778;48.962;9.018;2023-02-02T14:12:06;99995.75;;;5.75;94.37
21240;BME280;10778;48.962;9.018;2023-02-02T14:14:35;99999.59;;;5.67;94.95
21240;BME280;10778;48.962;9.018;2023-02-02T14:19:54;100011.47;;;5.73;93.46
21240;BME280;10778;48.962;9.018;2023-02-02T14:22:47;100006.09;;;5.76;93.25
21240;BME280;10778;48.962;9.018;2023-02-02T14:28:39;100006.03;;;5.78;92.51
21240;BME280;10778;48.962;9.018;2023-02-02T14:31:25;100025.41;;;5.74;92.87
21240;BME280;10778;48.962;9.018;2023-02-02T14:34:25;100016.63;;;5.75;92.55
21240;BME280;10778;48.962;9.018;2023-02-02T14:40:07;100019.81;;;5.80;91.18
21240;BME280;10778;48.962;9.018;2023-02-02T14:45:42;100023.19;;;5.82;91.30
21240;BME280;10778;48.962;9.018;2023-02-02T14:48:14;100029.16;;;5.84;91.67
21240;BME280;10778;48.962;9.018;2023-02-02T14:50:57;100032.13;;;5.78;91.59
21240;BME280;10778;48.962;9.018;2023-02-02T14:53:29;100028.34;;;5.83;90.65
21240;BME280;10778;48.962;9.018;2023-02-02T14:56:02;100023.78;;;5.87;90.88
21240;BME280;10778;48.962;9.018;2023-02-02T15:06:35;100044.66;;;5.87;90.85
21240;BME280;10778;48.962;9.018;2023-02-02T15:17:24;100047.38;;;5.86;90.18
21240;BME280;10778;48.962;9.018;2023-02-02T15:20:15;100070.94;;;5.84;90.37
21240;BME280;10778;48.962;9.018;2023-02-02T15:25:23;100072.56;;;5.87;89.45
21240;BME280;10778;48.962;9.018;2023-02-02T15:28:12;100077.97;;;5.83;89.47
21240;BME280;10778;48.962;9.018;2023-02-02T15:30:41;100077.09;;;5.83;90.28
21240;BME280;10778;48.962;9.018;2023-02-02T15:33:20;100079.72;;;5.83;90.76
21240;BME280;10778;48.962;9.018;2023-02-02T15:35:48;100089.66;;;5.76;90.48
21240;BME280;10778;48.962;9.018;2023-02-02T15:38:17;100094.03;;;5.76;90.32
21240;BME280;10778;48.962;9.018;2023-02-02T15:40:45;100101.53;;;5.82;89.65
21240;BME280;10778;48.962;9.018;2023-02-02T15:43:11;100097.25;;;5.81;89.61